Accueil
METAR-TAF:

METAR-TAF

Aéroports :

Base aérienne Cameri

Novare, Italie

latitude: 45-31N, longitude: 008-40E, altitude: 178 m

Observation

Le bulletin a été fait il y a 59 minutes, à 15:55 UTC
Vent 3 kt de sud/sud-ouest
Température 14°C
Humidité 77%
Pression 1016 hPa
Visibilité 10 km ou plus
pas de nuages en-dessous de 1500 mètres et pas de cumulonimbus.

METAR: LIMN 281555Z 20003KT CAVOK 14/10 Q1016 RMK BKN FEW070 SCT200 VIS MIN 9999 BLU

Heure: 17:54 (16:54 UTC)

Prévision

Le bulletin a été fait il y a 2 heures et 54 minutes, à 14:00 UTC
Prévision valable du 28 à 15 UTC au 28 à 24 UTC
Vent 5 kt de nord-ouest
Visibilité 10 km ou plus
Nuages fragmentés à une hauteur de 4000 ft
Temporairement
du 28 à 18 UTC au 28 à 24 UTC
Visibilité: 5000 m
brume,

TAF: LIMN 281400Z 2815/2824 31005KT 9999 BKN040 TEMPO 2818/2824 5000 BR

Observations et prévisions météorologiques de plus de 4000 aéroports (messages METAR et TAF).

Les stations disponibles sont représentées par des disques jaunes et rouges sur la carte.

Passer la souris dessus pour voir le nom de la station.

Cliquer dessus pour voir les observations et prévisions météorologiques.

Pour changer de carte: cliquez sur les boutons verts avec une croix noire pour zoomer, sur le bouton vert avec un tiret pour effectuer un zoom arrière, ou sur les flèches vertes pour les cartes adjacentes.


METAR-TAF: